createdAt,value
2018-03-16T00:00:02.181Z,86.60
2018-03-16T00:03:05.696Z,86.10
2018-03-16T00:06:09.097Z,86.00
2018-03-16T00:09:12.548Z,86.40
2018-03-16T00:12:16.045Z,86.30
2018-03-16T00:15:19.559Z,86.10
2018-03-16T00:18:22.984Z,86.30
2018-03-16T00:21:26.430Z,86.60
2018-03-16T00:24:29.898Z,86.50
2018-03-16T00:27:33.323Z,86.40
2018-03-16T00:30:36.887Z,86.70
2018-03-16T00:33:40.326Z,86.50
2018-03-16T00:36:43.816Z,86.40
2018-03-16T00:39:47.238Z,86.70
2018-03-16T00:42:50.613Z,86.60
2018-03-16T00:45:54.117Z,86.90
2018-03-16T00:48:57.503Z,87.20
2018-03-16T00:52:01.221Z,87.20
2018-03-16T00:55:05.131Z,87.20
2018-03-16T00:58:08.652Z,86.90
2018-03-16T01:01:12.014Z,86.80
2018-03-16T01:04:15.515Z,87.20
2018-03-16T01:07:19.946Z,87.70
2018-03-16T01:10:23.390Z,88.40
2018-03-16T01:13:26.865Z,88.60
2018-03-16T01:16:30.296Z,89.30
2018-03-16T01:19:34.605Z,90.40
2018-03-16T01:22:38.923Z,90.60
2018-03-16T01:25:42.339Z,90.50
2018-03-16T01:28:46.648Z,91.20
2018-03-16T01:31:50.043Z,90.70
2018-03-16T01:34:53.680Z,91.00
2018-03-16T01:37:57.255Z,91.30
2018-03-16T01:41:00.907Z,91.50
2018-03-16T01:44:05.367Z,91.40
2018-03-16T01:47:09.079Z,91.40
2018-03-16T01:50:12.509Z,91.40
2018-03-16T01:53:16.944Z,91.20
2018-03-16T01:56:20.409Z,91.30
2018-03-16T01:59:23.953Z,91.10
2018-03-16T02:02:28.243Z,91.70
2018-03-16T02:05:31.843Z,91.50
2018-03-16T02:08:35.707Z,91.60
2018-03-16T02:11:39.465Z,91.70
2018-03-16T02:14:43.092Z,91.80
2018-03-16T02:17:46.850Z,91.80
2018-03-16T02:20:50.533Z,91.70
2018-03-16T02:23:54.081Z,92.00
2018-03-16T02:26:57.575Z,92.00
2018-03-16T02:30:01.039Z,92.00
2018-03-16T02:33:04.552Z,92.10
2018-03-16T02:36:08.049Z,92.30
2018-03-16T02:39:11.489Z,92.40
2018-03-16T02:42:15.763Z,92.50
2018-03-16T02:45:19.230Z,92.30
2018-03-16T02:48:23.525Z,92.10
2018-03-16T02:51:27.342Z,91.90
2018-03-16T02:54:31.019Z,92.10
2018-03-16T02:57:35.772Z,92.20
2018-03-16T03:00:39.185Z,92.40
2018-03-16T03:06:52.521Z,92.20
2018-03-16T03:09:55.931Z,92.30
2018-03-16T03:12:59.467Z,92.10
2018-03-16T03:16:02.942Z,91.90
2018-03-16T03:19:06.413Z,92.00
2018-03-16T03:22:10.653Z,92.50
2018-03-16T03:25:14.220Z,92.20
2018-03-16T03:28:17.625Z,92.30
2018-03-16T03:31:21.064Z,92.80
2018-03-16T03:34:25.227Z,93.20
2018-03-16T03:37:28.901Z,93.00
2018-03-16T03:40:33.074Z,93.10
2018-03-16T03:43:36.582Z,93.00
2018-03-16T03:46:41.396Z,93.10
2018-03-16T03:49:44.919Z,93.30
2018-03-16T03:52:48.696Z,93.50
2018-03-16T03:55:52.308Z,93.70
2018-03-16T03:58:55.692Z,93.90
2018-03-16T04:02:00.025Z,93.60
2018-03-16T04:05:03.852Z,93.50
2018-03-16T04:08:08.504Z,93.50
2018-03-16T04:11:12.053Z,93.60
2018-03-16T04:14:16.006Z,93.40
2018-03-16T04:17:19.505Z,93.50
2018-03-16T04:20:22.985Z,93.30
2018-03-16T04:23:31.432Z,93.20
2018-03-16T04:26:34.875Z,93.40
2018-03-16T04:29:38.317Z,93.50
2018-03-16T04:32:42.032Z,93.60
2018-03-16T04:35:45.422Z,93.70
2018-03-16T04:38:48.918Z,93.50
2018-03-16T04:41:55.881Z,93.40
2018-03-16T04:45:00.702Z,93.30
2018-03-16T04:48:04.234Z,93.10
2018-03-16T04:51:07.883Z,93.10
2018-03-16T04:54:12.081Z,93.30
2018-03-16T04:57:15.609Z,93.10
2018-03-16T05:03:28.936Z,92.90
2018-03-16T05:06:33.066Z,92.80
2018-03-16T05:09:37.491Z,93.30
2018-03-16T05:12:41.355Z,93.50
2018-03-16T05:15:44.920Z,93.40
2018-03-16T05:18:48.361Z,93.50
2018-03-16T05:21:51.858Z,93.50
2018-03-16T05:24:55.706Z,93.60
2018-03-16T05:27:59.145Z,93.50
2018-03-16T05:31:02.542Z,93.50
2018-03-16T05:34:05.987Z,93.50
2018-03-16T05:37:09.388Z,93.60
2018-03-16T05:40:13.138Z,93.40
2018-03-16T05:43:16.887Z,93.70
2018-03-16T05:46:20.368Z,93.60
2018-03-16T05:49:23.868Z,93.30
2018-03-16T05:52:29.336Z,93.50
2018-03-16T05:55:33.154Z,93.30
2018-03-16T05:58:36.593Z,93.10
2018-03-16T06:01:40.275Z,93.30
2018-03-16T06:04:44.466Z,93.50
2018-03-16T06:07:47.889Z,93.50
2018-03-16T06:10:52.099Z,93.40
2018-03-16T06:13:55.592Z,93.30
2018-03-16T06:16:58.970Z,93.20
2018-03-16T06:20:02.467Z,93.20
2018-03-16T06:23:05.881Z,93.00
2018-03-16T06:26:10.117Z,93.30
2018-03-16T06:29:13.566Z,93.20
2018-03-16T06:32:17.118Z,93.20
2018-03-16T06:35:20.584Z,93.00
2018-03-16T06:38:24.024Z,93.10
2018-03-16T06:41:27.306Z,93.40
2018-03-16T06:44:30.637Z,93.20
2018-03-16T06:47:34.316Z,92.90
2018-03-16T06:50:37.710Z,92.80
2018-03-16T06:53:41.674Z,92.90
2018-03-16T06:56:45.104Z,93.10
2018-03-16T06:59:48.397Z,93.10
2018-03-16T07:02:51.835Z,92.90
2018-03-16T07:05:55.382Z,92.90
2018-03-16T07:08:58.900Z,92.90
2018-03-16T07:12:02.333Z,93.10
2018-03-16T07:15:17.447Z,93.20
2018-03-16T07:18:20.743Z,93.10
2018-03-16T07:21:25.036Z,93.20
2018-03-16T07:24:28.397Z,93.10
2018-03-16T07:27:31.740Z,93.00
2018-03-16T07:30:35.186Z,92.90
2018-03-16T07:33:38.616Z,92.40
2018-03-16T07:36:42.200Z,92.60
2018-03-16T07:39:46.465Z,92.30
2018-03-16T07:42:50.002Z,92.30
2018-03-16T07:46:07.161Z,92.80
2018-03-16T07:49:10.497Z,92.10
2018-03-16T07:52:13.996Z,92.60
2018-03-16T07:55:17.358Z,92.90
2018-03-16T07:58:20.943Z,92.90
2018-03-16T08:01:25.287Z,92.10
2018-03-16T08:04:28.793Z,91.70
2018-03-16T08:07:32.184Z,92.10
2018-03-16T08:10:35.659Z,91.60
2018-03-16T08:13:41.074Z,91.30
2018-03-16T08:16:44.433Z,91.10
2018-03-16T08:19:48.227Z,91.60
2018-03-16T08:22:51.658Z,91.70
2018-03-16T08:25:55.840Z,91.40
2018-03-16T08:28:59.237Z,91.30
2018-03-16T08:32:03.040Z,91.40
2018-03-16T08:35:06.477Z,91.40
2018-03-16T08:38:09.956Z,91.30
2018-03-16T08:41:13.465Z,91.50
2018-03-16T08:44:16.973Z,91.10
2018-03-16T08:47:20.443Z,90.70
2018-03-16T08:50:23.942Z,90.90
2018-03-16T08:53:27.480Z,91.40
2018-03-16T08:56:31.758Z,91.00
2018-03-16T08:59:35.371Z,90.90
2018-03-16T09:02:38.862Z,91.40
2018-03-16T09:05:42.335Z,91.40
2018-03-16T09:08:46.070Z,90.60
2018-03-16T09:11:49.617Z,90.70
2018-03-16T09:14:53.118Z,90.70
2018-03-16T09:17:56.833Z,90.80
2018-03-16T09:21:00.354Z,90.60
2018-03-16T09:24:04.576Z,91.00
2018-03-16T09:27:08.883Z,90.70
2018-03-16T09:30:12.391Z,90.50
2018-03-16T09:33:16.923Z,90.80
2018-03-16T09:36:20.420Z,90.60
2018-03-16T09:39:24.745Z,90.90
2018-03-16T09:45:40.858Z,90.70
2018-03-16T09:52:17.887Z,90.70
2018-03-16T09:55:46.834Z,90.40
2018-03-16T09:58:50.611Z,91.20
2018-03-16T10:01:54.059Z,91.10
2018-03-16T10:04:57.482Z,90.80
2018-03-16T10:08:00.960Z,90.80
2018-03-16T10:11:05.173Z,90.90
2018-03-16T10:14:08.704Z,90.80
2018-03-16T10:17:12.980Z,91.10
2018-03-16T10:20:16.469Z,90.80
2018-03-16T10:23:19.938Z,91.10
2018-03-16T10:26:23.666Z,91.20
2018-03-16T10:29:27.108Z,91.00
2018-03-16T10:32:31.295Z,91.20
2018-03-16T10:35:34.740Z,91.10
2018-03-16T10:38:38.214Z,91.10
2018-03-16T10:41:41.766Z,90.90
2018-03-16T10:44:45.160Z,90.90
2018-03-16T10:47:48.665Z,90.80
2018-03-16T10:50:52.192Z,91.00
2018-03-16T10:53:55.678Z,91.20
2018-03-16T10:56:59.225Z,91.30
2018-03-16T11:00:02.648Z,91.50
2018-03-16T11:03:07.787Z,91.90
2018-03-16T11:06:11.293Z,91.70
2018-03-16T11:09:15.582Z,91.60
2018-03-16T11:12:19.824Z,91.70
2018-03-16T11:15:23.253Z,91.50
2018-03-16T11:18:27.037Z,91.50
2018-03-16T11:21:30.557Z,91.50
2018-03-16T11:24:34.033Z,91.60
2018-03-16T11:27:37.530Z,92.10
2018-03-16T11:30:41.768Z,92.20
2018-03-16T11:33:45.966Z,92.10
2018-03-16T11:36:50.103Z,92.50
2018-03-16T11:39:53.604Z,92.40
2018-03-16T11:42:57.161Z,92.30
2018-03-16T11:46:00.696Z,92.10
2018-03-16T11:49:04.102Z,91.90
2018-03-16T11:52:07.521Z,91.40
2018-03-16T11:55:11.024Z,91.30
2018-03-16T11:58:14.532Z,91.80
2018-03-16T12:01:17.968Z,91.50
2018-03-16T12:04:21.528Z,91.40
2018-03-16T12:07:25.006Z,91.40
2018-03-16T12:10:29.204Z,91.80
2018-03-16T12:13:32.624Z,91.50
2018-03-16T12:16:36.999Z,91.70
2018-03-16T12:19:40.658Z,91.40
2018-03-16T12:22:44.256Z,91.70
2018-03-16T12:25:47.937Z,91.10
2018-03-16T12:28:51.612Z,91.70
2018-03-16T12:31:54.996Z,91.40
2018-03-16T12:34:58.449Z,91.40
2018-03-16T12:38:02.693Z,91.30
2018-03-16T12:41:06.853Z,91.20
2018-03-16T12:44:10.340Z,91.10
2018-03-16T12:47:13.800Z,91.30
2018-03-16T12:50:17.291Z,91.40
2018-03-16T12:53:21.622Z,91.30
2018-03-16T12:56:25.166Z,91.10
2018-03-16T12:59:28.600Z,91.10
2018-03-16T13:02:32.760Z,91.20
2018-03-16T13:05:36.615Z,91.10
2018-03-16T13:08:40.094Z,90.80
2018-03-16T13:11:43.632Z,90.90
2018-03-16T13:14:47.901Z,91.40
2018-03-16T13:17:51.395Z,91.20
2018-03-16T13:20:54.857Z,91.20
2018-03-16T13:23:59.064Z,91.40
2018-03-16T13:27:03.300Z,91.20
2018-03-16T13:30:07.599Z,91.10
2018-03-16T13:33:11.090Z,90.90
2018-03-16T13:36:14.471Z,90.60
2018-03-16T13:39:17.997Z,91.10
2018-03-16T13:42:21.501Z,91.30
2018-03-16T13:45:24.940Z,91.20
2018-03-16T13:48:28.455Z,91.10
2018-03-16T13:51:32.004Z,90.80
2018-03-16T13:54:36.369Z,91.30
2018-03-16T13:57:39.948Z,91.40
2018-03-16T14:00:44.200Z,91.50
2018-03-16T14:03:47.768Z,91.30
2018-03-16T14:06:52.000Z,91.50
2018-03-16T14:09:56.160Z,91.60
2018-03-16T14:12:59.859Z,91.70
2018-03-16T14:16:03.361Z,91.30
2018-03-16T14:19:06.838Z,91.50
2018-03-16T14:22:10.287Z,91.70
2018-03-16T14:25:13.794Z,91.50
2018-03-16T14:28:17.260Z,91.40
2018-03-16T14:31:20.814Z,91.60
2018-03-16T14:34:25.082Z,91.50
2018-03-16T14:37:28.726Z,91.30
2018-03-16T14:40:32.101Z,91.30
2018-03-16T14:43:35.521Z,91.40
2018-03-16T14:46:38.985Z,91.80
2018-03-16T14:49:42.495Z,91.30
2018-03-16T14:52:46.064Z,91.20
2018-03-16T14:55:50.286Z,91.40
2018-03-16T14:58:54.086Z,91.20
2018-03-16T15:01:59.266Z,91.20
2018-03-16T15:05:02.700Z,91.10
2018-03-16T15:08:06.997Z,91.00
2018-03-16T15:11:10.400Z,91.20
2018-03-16T15:14:13.975Z,91.50
2018-03-16T15:17:17.512Z,91.60
2018-03-16T15:20:21.063Z,91.50
2018-03-16T15:23:25.284Z,92.20
2018-03-16T15:26:28.699Z,92.00
2018-03-16T15:29:32.375Z,91.80
2018-03-16T15:32:36.573Z,90.90
2018-03-16T15:35:40.346Z,90.80
2018-03-16T15:38:44.568Z,91.00
2018-03-16T15:41:48.133Z,91.10
2018-03-16T15:44:51.502Z,91.40
2018-03-16T15:47:54.935Z,91.00
2018-03-16T15:50:58.344Z,91.40
2018-03-16T15:54:01.932Z,91.10
2018-03-16T15:57:05.389Z,90.60
2018-03-16T16:00:08.858Z,90.70
2018-03-16T16:03:12.273Z,91.00
2018-03-16T16:06:15.740Z,90.90
2018-03-16T16:09:19.165Z,90.80
2018-03-16T16:12:22.662Z,90.80
2018-03-16T16:15:26.088Z,90.90
2018-03-16T16:18:29.852Z,90.60
2018-03-16T16:21:33.354Z,90.80
2018-03-16T16:24:36.874Z,90.70
2018-03-16T16:27:40.553Z,90.70
2018-03-16T16:30:44.114Z,90.70
2018-03-16T16:33:47.654Z,90.40
2018-03-16T16:36:51.122Z,90.50
2018-03-16T16:39:54.658Z,90.40
2018-03-16T16:42:58.223Z,90.90
2018-03-16T16:46:01.705Z,90.60
2018-03-16T16:49:05.232Z,90.70
2018-03-16T16:52:08.770Z,91.10
2018-03-16T16:55:12.292Z,90.80
2018-03-16T16:58:15.708Z,91.00
2018-03-16T17:01:19.242Z,90.30
2018-03-16T17:04:22.665Z,90.50
2018-03-16T17:07:26.279Z,90.40
2018-03-16T17:10:29.920Z,90.40
2018-03-16T17:13:33.504Z,90.20
2018-03-16T17:16:37.084Z,90.20
2018-03-16T17:19:41.557Z,90.30
2018-03-16T17:22:45.039Z,90.10
2018-03-16T17:25:48.424Z,90.40
2018-03-16T17:28:52.030Z,90.70
2018-03-16T17:31:55.559Z,90.70
2018-03-16T17:34:58.994Z,90.00
2018-03-16T17:38:02.508Z,89.70
2018-03-16T17:41:05.959Z,88.10
2018-03-16T17:44:09.487Z,89.30
2018-03-16T17:47:13.013Z,89.40
2018-03-16T17:50:16.470Z,89.10
2018-03-16T17:53:19.939Z,90.00
2018-03-16T17:56:23.648Z,89.50
2018-03-16T17:59:27.039Z,90.10
2018-03-16T18:02:30.532Z,89.60
2018-03-16T18:05:34.014Z,90.00
2018-03-16T18:08:37.401Z,90.20
2018-03-16T18:11:41.825Z,90.00
2018-03-16T18:14:45.336Z,89.70
2018-03-16T18:17:48.779Z,89.20
2018-03-16T18:20:52.182Z,88.70
2018-03-16T18:23:55.640Z,89.30
2018-03-16T18:26:59.444Z,89.40
2018-03-16T18:30:02.882Z,88.60
2018-03-16T18:33:06.373Z,87.90
2018-03-16T18:36:09.887Z,88.00
2018-03-16T18:39:13.403Z,88.50
2018-03-16T18:42:17.483Z,89.00
2018-03-16T18:45:20.914Z,88.60
2018-03-16T18:48:24.420Z,89.40
2018-03-16T18:51:27.906Z,88.30
2018-03-16T18:54:31.416Z,88.70
2018-03-16T18:57:34.978Z,88.50
2018-03-16T19:00:38.496Z,88.10
2018-03-16T19:03:42.753Z,89.10
2018-03-16T19:06:46.369Z,88.80
2018-03-16T19:09:49.828Z,88.70
2018-03-16T19:12:53.385Z,89.00
2018-03-16T19:15:57.736Z,89.60
2018-03-16T19:19:03.572Z,89.50
2018-03-16T19:22:07.159Z,89.10
2018-03-16T19:25:10.490Z,89.50
2018-03-16T19:28:15.345Z,89.40
2018-03-16T19:31:18.796Z,88.90
2018-03-16T19:34:22.155Z,88.70
2018-03-16T19:37:25.608Z,88.40
2018-03-16T19:40:29.018Z,88.30
2018-03-16T19:43:33.232Z,89.50
2018-03-16T19:46:36.721Z,89.20
2018-03-16T19:49:40.193Z,88.30
2018-03-16T19:52:44.326Z,88.50
2018-03-16T19:55:47.655Z,88.80
2018-03-16T19:58:51.140Z,88.10
2018-03-16T20:01:55.056Z,88.40
2018-03-16T20:04:59.264Z,88.20
2018-03-16T20:08:03.002Z,88.00
2018-03-16T20:11:06.824Z,88.00
2018-03-16T20:14:10.257Z,88.70
2018-03-16T20:17:13.988Z,88.70
2018-03-16T20:20:17.473Z,88.40
2018-03-16T20:23:20.924Z,88.10
2018-03-16T20:26:25.121Z,88.80
2018-03-16T20:29:28.815Z,88.60
2018-03-16T20:32:32.214Z,88.00
2018-03-16T20:35:35.693Z,88.20
2018-03-16T20:38:39.244Z,88.30
2018-03-16T20:41:43.639Z,89.00
2018-03-16T20:48:13.341Z,88.10
2018-03-16T20:54:27.297Z,88.50
2018-03-16T20:57:30.730Z,88.10
2018-03-16T21:00:34.975Z,88.70
2018-03-16T21:03:38.367Z,88.30
2018-03-16T21:06:41.898Z,88.10
2018-03-16T21:09:45.344Z,87.80
2018-03-16T21:12:48.845Z,88.40
2018-03-16T21:15:52.216Z,88.00
2018-03-16T21:18:55.588Z,88.50
2018-03-16T21:21:59.939Z,88.10
2018-03-16T21:25:03.298Z,89.00
2018-03-16T21:28:07.451Z,88.90
2018-03-16T21:31:11.178Z,88.70
2018-03-16T21:34:15.615Z,88.70
2018-03-16T21:37:19.103Z,88.40
2018-03-16T21:40:23.040Z,88.10
2018-03-16T21:43:26.677Z,88.20
2018-03-16T21:46:30.053Z,87.60
2018-03-16T21:49:33.486Z,87.70
2018-03-16T21:52:37.191Z,88.00
2018-03-16T21:58:50.473Z,87.80
2018-03-16T22:01:53.991Z,87.70
2018-03-16T22:04:57.406Z,88.10
2018-03-16T22:08:00.870Z,87.70
2018-03-16T22:11:04.197Z,88.30
2018-03-16T22:14:07.694Z,88.20
2018-03-16T22:17:11.087Z,87.20
2018-03-16T22:20:14.501Z,87.60
2018-03-16T22:23:17.970Z,87.80
2018-03-16T22:26:21.401Z,87.70
2018-03-16T22:29:25.618Z,88.50
2018-03-16T22:32:29.115Z,88.20
2018-03-16T22:35:32.773Z,87.40
2018-03-16T22:38:36.219Z,87.30
2018-03-16T22:41:39.582Z,87.40
2018-03-16T22:44:42.994Z,87.30
2018-03-16T22:47:47.005Z,87.00
2018-03-16T22:50:50.494Z,86.90
2018-03-16T22:53:54.940Z,87.60
2018-03-16T22:56:58.405Z,87.30
2018-03-16T23:00:01.962Z,87.00
2018-03-16T23:03:07.435Z,87.20
2018-03-16T23:06:10.802Z,86.90
2018-03-16T23:09:16.010Z,86.80
2018-03-16T23:12:19.679Z,86.70
2018-03-16T23:15:23.110Z,86.10
2018-03-16T23:18:26.438Z,86.20
2018-03-16T23:21:29.917Z,87.00
2018-03-16T23:24:33.324Z,86.30
2018-03-16T23:27:37.837Z,86.90
2018-03-16T23:30:41.569Z,86.70
2018-03-16T23:33:45.796Z,86.60
2018-03-16T23:36:49.439Z,86.20
2018-03-16T23:39:52.868Z,86.40
2018-03-16T23:42:56.383Z,86.90
2018-03-16T23:45:59.931Z,87.40
2018-03-16T23:49:03.280Z,86.80
2018-03-16T23:52:06.700Z,86.50
2018-03-16T23:55:10.032Z,86.10
2018-03-16T23:58:14.284Z,87.00
